Time;durP1;ratioP1;P1;durP2;ratioP2;P2;SDS_P1;SDS_P2;PMS_P1;PMS_P2;Temp;Humidity;BMP_temperature;BMP_pressure;BME280_temperature;BME280_humidity;BME280_pressure;Samples;Min_cycle;Max_cycle;Signal;HPM_P1;HPM_P2
2022/02/10 00:21:01;;;;;;;2.83;2.28;;;;;;;1.69;73.77;98814.66;5063621;28;20048;-60
2022/02/10 00:36:41;;;;;;;2.10;1.80;;;;;;;1.57;72.44;98814.66;5064340;28;20075;-60
2022/02/10 00:39:27;;;;;;;3.95;2.00;;;;;;;1.63;73.07;98813.81;5060472;28;20036;-60
2022/02/10 00:41:52;;;;;;;2.20;1.80;;;;;;;1.71;73.86;98812.09;5064058;28;20051;-60
2022/02/10 00:44:18;;;;;;;3.08;2.00;;;;;;;1.66;73.10;98806.16;5063862;28;20021;-59
2022/02/10 00:46:44;;;;;;;2.22;1.88;;;;;;;1.67;72.28;98810.44;5064339;28;20476;-60
2022/02/10 00:49:09;;;;;;;5.07;1.85;;;;;;;1.54;72.02;98802.75;5063991;28;20187;-60
2022/02/10 00:51:35;;;;;;;2.30;1.70;;;;;;;1.67;72.55;98805.31;5064035;28;20024;-60
2022/02/10 00:54:01;;;;;;;2.83;1.50;;;;;;;1.53;72.56;98802.75;5063746;28;20095;-60
2022/02/10 00:56:27;;;;;;;2.42;1.60;;;;;;;1.55;71.31;98804.47;5064088;28;20037;-59
2022/02/10 00:59:10;;;;;;;2.60;1.40;;;;;;;1.52;72.31;98806.16;5062790;28;20040;-59
2022/02/10 01:07:13;;;;;;;1.48;1.13;;;;;;;1.60;70.93;98793.41;5046008;28;20087;-59
2022/02/10 01:12:42;;;;;;;2.17;1.10;;;;;;;1.53;69.73;98782.34;5063564;28;20067;-60
2022/02/10 01:31:16;;;;;;;1.85;0.90;;;;;;;1.35;70.79;98773.84;5063174;28;20033;-59
2022/02/10 01:33:43;;;;;;;1.67;1.00;;;;;;;1.38;70.91;98760.22;5063613;28;20327;-60
2022/02/10 01:36:09;;;;;;;1.58;0.93;;;;;;;1.44;71.47;98772.13;5063330;28;20023;-60
2022/02/10 01:38:35;;;;;;;0.95;0.90;;;;;;;1.48;70.00;98769.59;5063204;28;20079;-59
2022/02/10 01:41:31;;;;;;;1.58;1.10;;;;;;;1.43;69.90;98760.25;5063166;28;20044;-60
2022/02/10 01:58:07;;;;;;;2.03;1.30;;;;;;;1.45;71.01;98761.06;5041484;28;20033;-60
2022/02/10 02:03:21;;;;;;;1.63;1.40;;;;;;;1.31;71.27;98750.84;5062777;28;20233;-60
2022/02/10 02:05:53;;;;;;;1.70;1.20;;;;;;;1.01;70.09;98683.69;5062477;28;20086;-60
2022/02/10 02:08:27;;;;;;;1.55;1.20;;;;;;;1.38;70.30;98752.56;5051601;28;20083;-60
2022/02/10 02:10:53;;;;;;;1.90;1.10;;;;;;;1.50;70.97;98747.47;5059799;28;20063;-59
2022/02/10 02:13:19;;;;;;;1.20;1.08;;;;;;;1.43;69.56;98745.78;5061508;28;20041;-59
2022/02/10 02:15:45;;;;;;;1.10;1.00;;;;;;;1.53;70.37;98755.13;5062847;28;20033;-59
2022/02/10 02:18:11;;;;;;;1.45;1.20;;;;;;;1.53;70.08;98747.47;5062705;28;20365;-59
2022/02/10 02:20:36;;;;;;;2.38;1.30;;;;;;;1.55;70.50;98750.88;5057061;28;20029;-58
2022/02/10 02:23:03;;;;;;;1.25;1.13;;;;;;;1.30;71.56;98693.91;5049372;28;20021;-58
2022/02/10 02:25:29;;;;;;;1.17;1.08;;;;;;;1.50;70.33;98741.53;5048046;28;20391;-58
2022/02/10 02:27:57;;;;;;;1.73;1.27;;;;;;;1.54;70.50;98736.41;5062726;28;20025;-60
2022/02/10 02:30:37;;;;;;;2.10;0.98;;;;;;;1.46;69.18;98712.59;5062680;28;20045;-61
2022/02/10 03:08:24;;;;;;;1.42;1.25;;;;;;;1.44;71.91;98699.00;5053437;28;20040;-60
2022/02/10 03:13:22;;;;;;;4.20;1.63;;;;;;;1.33;70.80;98693.06;5062281;28;20029;-59
2022/02/10 03:18:36;;;;;;;1.75;1.40;;;;;;;1.29;71.19;98692.22;5066111;28;20025;-60
2022/02/10 04:25:46;;;;;;;2.95;1.77;;;;;;;1.44;72.96;98642.91;5064524;28;20025;-60
2022/02/10 05:08:33;;;;;;;14.02;2.30;;;;;;;1.37;74.37;98601.22;5062187;28;20021;-57
2022/02/10 05:34:32;;;;;;;3.10;2.17;;;;;;;1.31;74.75;98590.19;5063014;28;20221;-57
2022/02/10 05:36:59;;;;;;;3.58;2.22;;;;;;;1.08;75.38;98580.88;5063076;28;20191;-57
2022/02/10 05:39:27;;;;;;;5.13;2.40;;;;;;;1.14;75.14;98580.00;5061903;28;20029;-56
2022/02/10 05:58:10;;;;;;;;;;;;;;;1.36;76.03;98586.78;5063552;28;20029;-56
2022/02/10 06:50:09;;;;;;;5.07;3.20;;;;;;;1.55;76.05;98556.09;5059256;28;20395;-56
2022/02/10 06:53:32;;;;;;;6.43;3.00;;;;;;;1.05;76.32;98489.09;5065105;28;20037;-57
2022/02/10 09:06:24;;;;;;;10.55;4.50;;;;;;;2.26;82.14;98480.84;5061145;28;20220;-56
2022/02/10 09:11:57;;;;;;;8.35;4.72;;;;;;;2.41;82.69;98480.75;5063344;28;20032;-56
2022/02/10 10:01:59;;;;;;;5.85;4.85;;;;;;;2.53;83.65;98456.78;5061915;28;20033;-58
2022/02/10 10:04:30;;;;;;;6.65;4.80;;;;;;;2.51;83.87;98454.25;5062407;28;20082;-56
2022/02/10 10:21:23;;;;;;;9.38;4.82;;;;;;;2.10;85.27;98393.31;5060334;28;20041;-57
2022/02/10 10:56:50;;;;;;;7.75;4.70;;;;;;;2.15;84.91;98420.50;5061960;28;20032;-56
2022/02/10 11:22:22;;;;;;;8.13;4.28;;;;;;;2.76;84.45;98477.00;5060811;28;20106;-57
2022/02/10 11:36:29;;;;;;;11.70;4.63;;;;;;;3.05;83.65;98501.44;5060586;28;20325;-58
2022/02/10 14:15:02;;;;;;;7.13;2.50;;;;;;;3.07;77.83;98635.28;5062115;28;20244;-58
2022/02/10 14:17:42;;;;;;;5.60;2.97;;;;;;;3.09;77.37;98634.41;5061200;28;20044;-60
2022/02/10 14:20:32;;;;;;;5.22;2.40;;;;;;;3.10;77.64;98638.66;5062023;28;20334;-60
2022/02/10 14:23:06;;;;;;;6.35;2.72;;;;;;;2.96;77.33;98635.34;5060985;28;20092;-59
2022/02/10 14:28:03;;;;;;;5.78;2.75;;;;;;;3.01;77.18;98646.41;5062135;28;20079;-58
2022/02/10 14:30:29;;;;;;;7.95;2.90;;;;;;;2.98;77.89;98656.66;5060874;28;20029;-58
2022/02/10 14:32:57;;;;;;;4.38;2.50;;;;;;;2.96;77.84;98654.97;5061552;28;20025;-58
2022/02/10 14:35:30;;;;;;;4.53;2.60;;;;;;;3.04;77.07;98659.16;5061785;28;20036;-57
2022/02/10 15:21:38;;;;;;;6.70;3.25;;;;;;;2.87;77.55;98687.41;5064979;28;20032;-60
2022/02/10 15:31:03;;;;;;;7.38;2.60;;;;;;;2.86;76.90;98690.00;5064980;28;20033;-60
2022/02/10 16:18:19;;;;;;;7.28;2.65;;;;;;;2.93;76.55;98724.88;5063375;28;20093;-60
2022/02/10 16:20:50;;;;;;;6.28;2.67;;;;;;;2.92;76.41;98731.72;5062406;28;20033;-59
2022/02/10 16:23:18;;;;;;;5.93;2.40;;;;;;;2.77;76.86;98742.03;5062980;28;20041;-60
2022/02/10 16:25:51;;;;;;;7.10;2.65;;;;;;;2.75;78.32;98728.38;5064125;28;20027;-59
2022/02/10 16:30:44;;;;;;;5.57;2.95;;;;;;;2.74;79.06;98732.66;5064083;28;20096;-60
2022/02/10 16:33:11;;;;;;;6.28;2.92;;;;;;;2.75;78.87;98743.72;5063943;28;20074;-60
2022/02/10 16:35:38;;;;;;;5.43;2.90;;;;;;;2.71;79.21;98737.78;5064049;28;20213;-61
2022/02/10 16:38:04;;;;;;;5.30;3.00;;;;;;;2.69;79.23;98724.16;5063887;28;20104;-60
2022/02/10 16:40:30;;;;;;;6.57;3.17;;;;;;;2.79;79.43;98744.56;5064482;28;20092;-59
2022/02/10 16:42:56;;;;;;;7.82;3.20;;;;;;;2.69;79.28;98728.44;5063975;28;20205;-59
2022/02/10 16:45:23;;;;;;;6.78;2.92;;;;;;;2.76;79.22;98748.84;5062485;28;20036;-60
2022/02/10 16:47:48;;;;;;;5.80;2.60;;;;;;;2.67;79.09;98751.44;5062506;28;20021;-61
2022/02/10 16:50:14;;;;;;;5.55;2.35;;;;;;;2.57;78.78;98734.47;5062690;28;20085;-58
2022/02/10 16:52:46;;;;;;;5.05;3.30;;;;;;;2.71;78.67;98742.91;5063617;28;20150;-59
2022/02/10 16:58:08;;;;;;;6.45;2.20;;;;;;;2.63;79.00;98757.44;5063707;28;20329;-59
2022/02/10 17:06:02;;;;;;;5.75;2.67;;;;;;;2.78;77.91;98747.97;5063528;28;20025;-58
2022/02/10 17:14:40;;;;;;;5.68;2.13;;;;;;;2.57;78.71;98739.56;5059528;28;20098;-59
2022/02/10 17:27:40;;;;;;;6.28;2.95;;;;;;;2.50;78.82;98759.19;5062770;28;20049;-60
2022/02/10 17:46:03;;;;;;;5.45;2.80;;;;;;;2.51;78.12;98763.44;5059488;28;20197;-62
2022/02/10 17:53:56;;;;;;;4.88;2.90;;;;;;;2.27;78.32;98753.28;5054802;28;20036;-62
2022/02/10 17:56:22;;;;;;;7.15;3.03;;;;;;;2.41;78.77;98772.00;5060227;28;20097;-61
2022/02/10 17:58:49;;;;;;;4.40;2.95;;;;;;;2.52;78.23;98774.50;5059700;28;20099;-64
2022/02/10 18:01:15;;;;;;;4.40;3.05;;;;;;;2.54;77.84;98780.47;5061646;28;20040;-64
2022/02/10 18:03:42;;;;;;;5.28;3.00;;;;;;;2.38;77.80;98766.88;5061568;28;20341;-63
2022/02/10 18:08:40;;;;;;;6.68;2.72;;;;;;;2.38;77.73;98775.41;5060841;28;20032;-62
2022/02/10 18:14:08;;;;;;;5.28;2.80;;;;;;;2.44;78.11;98782.22;5042421;28;20036;-61
2022/02/10 18:19:11;;;;;;;6.07;3.15;;;;;;;2.33;78.14;98764.34;5061105;28;20028;-62
2022/02/10 19:10:02;;;;;;;4.05;2.28;;;;;;;2.41;78.51;98790.72;5059403;28;20033;-60
2022/02/10 19:12:33;;;;;;;3.47;2.00;;;;;;;2.46;77.83;98780.50;5066406;28;20029;-60
2022/02/10 19:17:53;;;;;;;3.83;2.00;;;;;;;2.50;78.18;98791.56;5064552;28;20043;-61
2022/02/10 19:20:21;;;;;;;3.00;1.65;;;;;;;2.52;77.09;98787.28;5065558;28;20067;-60
2022/02/10 19:22:47;;;;;;;5.13;1.48;;;;;;;2.49;76.27;98785.59;5065497;28;20017;-59
2022/02/10 19:25:13;;;;;;;3.80;1.55;;;;;;;2.34;76.83;98778.00;5065602;28;20383;-59
2022/02/10 19:27:41;;;;;;;3.55;1.80;;;;;;;2.39;77.05;98778.81;5065486;28;20070;-60
2022/02/10 19:30:10;;;;;;;4.57;2.03;;;;;;;2.38;76.64;98783.09;5065425;28;20021;-60
2022/02/10 19:32:38;;;;;;;2.78;1.88;;;;;;;2.37;77.09;98785.66;5064973;28;20021;-59
2022/02/10 19:35:05;;;;;;;4.72;2.08;;;;;;;2.42;76.77;98786.47;5064881;28;20104;-60
2022/02/10 19:37:31;;;;;;;3.22;1.95;;;;;;;2.35;77.05;98774.56;5065107;28;20025;-61
2022/02/10 19:40:00;;;;;;;3.92;2.08;;;;;;;2.43;77.28;98793.28;5062508;28;20096;-60
2022/02/10 19:42:30;;;;;;;3.05;2.20;;;;;;;2.05;76.29;98728.69;5065075;28;20029;-60
2022/02/10 19:45:02;;;;;;;3.10;1.95;;;;;;;2.20;75.97;98747.38;5062300;28;20318;-61
2022/02/10 19:47:31;;;;;;;6.43;2.10;;;;;;;2.42;76.05;98795.00;5064293;28;20021;-59
2022/02/10 19:49:58;;;;;;;4.72;2.42;;;;;;;2.46;76.50;98798.38;5065082;28;20020;-60
2022/02/10 19:52:25;;;;;;;3.42;2.08;;;;;;;2.29;76.25;98764.38;5064151;28;20334;-59
2022/02/10 19:54:55;;;;;;;6.43;2.22;;;;;;;2.36;75.17;98796.72;5065258;28;20033;-60
2022/02/10 19:57:23;;;;;;;3.97;2.00;;;;;;;2.32;75.48;98795.00;5056999;28;20048;-60
2022/02/10 19:59:49;;;;;;;4.75;1.92;;;;;;;2.42;75.69;98800.09;5061059;28;20037;-60
2022/02/10 20:02:17;;;;;;;5.78;1.80;;;;;;;2.40;75.45;98793.28;5064601;28;20056;-59
2022/02/10 20:04:43;;;;;;;4.45;2.55;;;;;;;2.48;74.99;98795.81;5064496;28;20028;-60
2022/02/10 20:07:11;;;;;;;5.45;2.38;;;;;;;2.52;75.70;98798.38;5061729;28;20052;-59
2022/02/10 20:09:37;;;;;;;4.70;2.35;;;;;;;2.46;75.13;98797.53;5063280;28;20017;-59
2022/02/10 20:12:03;;;;;;;2.83;2.05;;;;;;;2.36;74.82;98797.53;5064940;28;20369;-59
2022/02/10 20:14:28;;;;;;;5.88;1.83;;;;;;;2.37;73.89;98799.25;5064775;28;20021;-59
2022/02/10 20:16:57;;;;;;;1.95;1.40;;;;;;;2.43;73.82;98798.38;5064799;28;20253;-59
2022/02/10 20:19:22;;;;;;;3.10;1.70;;;;;;;2.33;73.94;98789.06;5064696;28;20036;-59
2022/02/10 20:21:48;;;;;;;4.43;1.67;;;;;;;2.28;73.45;98785.66;5064335;28;20025;-60
2022/02/10 20:24:14;;;;;;;3.63;1.38;;;;;;;2.37;74.32;98799.25;5064443;28;20317;-59
2022/02/10 20:26:39;;;;;;;4.15;1.30;;;;;;;2.31;73.35;98783.97;5064374;28;20108;-58
2022/02/10 20:29:05;;;;;;;3.70;1.50;;;;;;;2.43;73.16;98798.38;5064401;28;20024;-59
2022/02/10 20:31:34;;;;;;;2.80;1.50;;;;;;;2.09;72.49;98757.59;5064154;28;20029;-59
2022/02/10 20:34:01;;;;;;;1.30;0.98;;;;;;;2.42;73.05;98806.91;5061790;28;20024;-59
2022/02/10 20:36:27;;;;;;;3.13;1.65;;;;;;;2.44;72.77;98806.91;5064144;28;20094;-58
2022/02/10 20:38:57;;;;;;;3.90;1.48;;;;;;;2.33;72.24;98794.16;5064016;28;20029;-59
2022/02/10 20:41:24;;;;;;;4.80;1.60;;;;;;;2.43;73.22;98800.94;5064166;28;20021;-59
2022/02/10 20:43:54;;;;;;;2.88;1.45;;;;;;;2.48;71.84;98800.94;5064145;28;20033;-59
2022/02/10 20:46:20;;;;;;;2.47;1.50;;;;;;;2.49;72.85;98810.28;5064046;28;20233;-60
2022/02/10 20:48:46;;;;;;;2.63;1.50;;;;;;;2.44;72.68;98792.44;5064592;28;20036;-59
2022/02/10 20:51:14;;;;;;;3.25;1.40;;;;;;;2.03;71.78;98742.31;5063533;28;20074;-59
2022/02/10 20:53:44;;;;;;;;;;;;;;;2.40;70.55;98804.34;5062732;28;20074;-59
2022/02/10 20:56:13;;;;;;;4.25;1.30;;;;;;;2.01;71.46;98744.88;5063926;28;19911;-59
2022/02/10 20:58:40;;;;;;;5.78;2.15;;;;;;;2.42;71.68;98805.22;5064013;28;20330;-59
2022/02/10 21:01:09;;;;;;;2.88;1.20;;;;;;;2.32;70.88;98798.41;5063728;28;20267;-59
2022/02/10 21:03:36;;;;;;;3.42;1.50;;;;;;;2.45;70.41;98812.00;5063992;28;20032;-59
2022/02/10 21:11:10;;;;;;;2.05;1.30;;;;;;;2.48;70.59;98809.47;5063590;28;20033;-61
2022/02/10 21:13:35;;;;;;;3.08;1.42;;;;;;;2.34;69.80;98791.59;5064103;28;20035;-59
2022/02/10 21:16:01;;;;;;;6.20;2.30;;;;;;;2.42;70.69;98804.34;5063133;28;20032;-59
2022/02/10 21:18:28;;;;;;;4.82;1.40;;;;;;;2.48;70.19;98796.69;5063888;28;20036;-60
2022/02/10 21:21:00;;;;;;;2.65;1.33;;;;;;;2.52;70.51;98800.94;5063602;28;20021;-60
2022/02/10 21:23:43;;;;;;;3.47;1.55;;;;;;;2.47;69.74;98786.47;5063570;28;20074;-60
2022/02/10 21:26:10;;;;;;;2.92;1.25;;;;;;;2.42;69.76;98802.66;5063277;28;20091;-59
2022/02/10 21:28:39;;;;;;;3.03;1.30;;;;;;;2.53;69.95;98804.31;5062216;28;20040;-60
2022/02/10 21:31:07;;;;;;;5.18;1.35;;;;;;;2.48;69.32;98809.47;5063272;28;20306;-59
2022/02/10 21:39:42;;;;;;;2.33;1.20;;;;;;;2.48;70.79;98785.59;5063336;28;20051;-59
2022/02/10 22:01:30;;;;;;;4.38;1.50;;;;;;;2.38;68.48;98789.88;5062909;28;20032;-60
2022/02/10 22:16:43;;;;;;;4.15;1.30;;;;;;;2.39;66.74;98795.00;5062650;28;20021;-60
2022/02/10 22:19:23;;;;;;;2.85;1.60;;;;;;;2.32;66.56;98767.75;5062888;28;20041;-60
2022/02/10 22:21:54;;;;;;;4.90;1.67;;;;;;;2.42;68.52;98792.44;5061867;28;20205;-60
2022/02/10 22:24:21;;;;;;;2.22;1.10;;;;;;;2.36;67.13;98789.88;5062856;28;20273;-61
2022/02/10 22:26:49;;;;;;;4.45;1.70;;;;;;;2.33;66.90;98795.00;5062649;28;20031;-61
2022/02/10 22:29:36;;;;;;;2.45;1.10;;;;;;;2.34;67.50;98791.59;5062781;28;20033;-59
2022/02/10 22:34:38;;;;;;;3.13;1.50;;;;;;;2.43;67.33;98800.94;5062099;28;20049;-59
2022/02/10 22:37:07;;;;;;;6.40;1.63;;;;;;;2.43;67.16;98793.28;5061574;28;20082;-59
2022/02/10 22:39:39;;;;;;;3.85;1.60;;;;;;;2.39;67.58;98794.13;5062787;28;20025;-60
2022/02/10 22:42:06;;;;;;;5.57;1.92;;;;;;;2.39;67.92;98800.13;5062631;28;20028;-59
2022/02/10 22:44:32;;;;;;;2.95;1.38;;;;;;;2.42;67.70;98794.13;5062687;28;20040;-60
2022/02/10 22:46:58;;;;;;;3.67;1.75;;;;;;;2.49;68.15;98792.41;5062416;28;20025;-60
2022/02/10 22:49:24;;;;;;;6.28;1.58;;;;;;;2.27;67.26;98779.72;5062560;28;20029;-60
2022/02/10 22:51:50;;;;;;;3.80;1.50;;;;;;;2.51;68.48;98781.34;5062680;28;20021;-60
2022/02/10 22:54:16;;;;;;;6.40;2.10;;;;;;;2.38;66.60;98769.44;5062454;28;20036;-60
2022/02/10 22:56:45;;;;;;;5.10;1.60;;;;;;;2.12;68.11;98721.84;5062380;28;20020;-60
2022/02/10 22:59:12;;;;;;;7.03;1.70;;;;;;;2.29;67.47;98777.97;5062337;28;20314;-60
2022/02/10 23:01:38;;;;;;;3.53;1.40;;;;;;;2.37;68.07;98778.81;5062357;28;20102;-60
2022/02/10 23:04:05;;;;;;;5.32;1.83;;;;;;;2.29;67.45;98774.59;5062514;28;20033;-60
2022/02/10 23:06:31;;;;;;;5.88;1.92;;;;;;;2.12;67.93;98742.28;5062573;28;20028;-60
2022/02/10 23:08:57;;;;;;;3.42;1.10;;;;;;;2.29;67.97;98775.44;5062228;28;20053;-60
2022/02/10 23:11:28;;;;;;;1.92;1.33;;;;;;;2.44;68.67;98791.56;5062031;28;20195;-60
2022/02/10 23:13:58;;;;;;;5.40;1.35;;;;;;;2.38;68.64;98782.22;5062300;28;20033;-60
2022/02/10 23:16:25;;;;;;;3.90;1.52;;;;;;;2.33;68.67;98772.00;5062247;28;20048;-60
2022/02/10 23:18:51;;;;;;;3.67;1.63;;;;;;;2.30;68.80;98782.25;5062034;28;20044;-59
2022/02/10 23:21:17;;;;;;;4.00;1.50;;;;;;;2.38;68.19;98790.75;5061957;28;20100;-58
2022/02/10 23:23:47;;;;;;;5.70;2.08;;;;;;;2.24;67.98;98767.78;5062046;28;20017;-59
2022/02/10 23:26:15;;;;;;;3.60;1.40;;;;;;;1.95;68.71;98733.81;5062114;28;20032;-59
2022/02/10 23:28:50;;;;;;;4.95;1.50;;;;;;;2.40;69.21;98795.84;5062382;28;20028;-58
2022/02/10 23:31:18;;;;;;;3.88;1.60;;;;;;;2.40;68.99;98803.50;5072452;28;20029;-58
2022/02/10 23:33:50;;;;;;;4.18;1.40;;;;;;;2.25;69.36;98778.84;5064986;28;20104;-58
2022/02/10 23:39:13;;;;;;;5.93;1.60;;;;;;;2.34;69.72;98783.09;5065815;28;20039;-59
2022/02/10 23:44:14;;;;;;;3.28;1.30;;;;;;;2.21;70.52;98760.13;5065591;28;20045;-59
2022/02/10 23:46:41;;;;;;;3.30;1.25;;;;;;;2.26;69.54;98772.88;5065448;28;20066;-59
2022/02/10 23:49:07;;;;;;;7.50;1.90;;;;;;;2.15;70.06;98777.16;5064455;28;20041;-58
2022/02/10 23:51:40;;;;;;;3.35;1.30;;;;;;;2.29;69.59;98782.25;5065315;28;20035;-59
2022/02/10 23:54:06;;;;;;;4.07;1.38;;;;;;;2.28;69.35;98778.84;5065417;28;20108;-59
2022/02/10 23:56:38;;;;;;;5.03;1.90;;;;;;;2.07;70.56;98746.56;5065470;28;20017;-59
2022/02/10 23:59:12;;;;;;;5.32;1.65;;;;;;;2.33;70.97;98777.13;5065315;28;20032;-59
